Map

Track Data

SID SEASON NUMBER BASIN SUBBASIN NAME ISO_TIME NATURE LAT LON WMO_WIND WMO_PRES WMO_AGENCY TRACK_TYPE DIST2LAND LANDFALL IFLAG USA_AGENCY USA_ATCF_ID USA_LAT USA_LON USA_RECORD USA_STATUS USA_WIND USA_PRES USA_SSHS USA_R34_NE USA_R34_SE USA_R34_SW USA_R34_NW USA_R50_NE USA_R50_SE USA_R50_SW USA_R50_NW USA_R64_NE USA_R64_SE USA_R64_SW USA_R64_NW USA_POCI USA_ROCI USA_RMW USA_EYE TOKYO_LAT TOKYO_LON TOKYO_GRADE TOKYO_WIND TOKYO_PRES TOKYO_R50_DIR TOKYO_R50_LONG TOKYO_R50_SHORT TOKYO_R30_DIR TOKYO_R30_LONG TOKYO_R30_SHORT TOKYO_LAND CMA_LAT CMA_LON CMA_CAT CMA_WIND CMA_PRES HKO_LAT HKO_LON HKO_CAT HKO_WIND HKO_PRES NEWDELHI_LAT NEWDELHI_LON NEWDELHI_GRADE NEWDELHI_WIND NEWDELHI_PRES NEWDELHI_CI NEWDELHI_DP NEWDELHI_POCI REUNION_LAT REUNION_LON REUNION_TYPE REUNION_WIND REUNION_PRES REUNION_TNUM REUNION_CI REUNION_RMW REUNION_R34_NE REUNION_R34_SE REUNION_R34_SW REUNION_R34_NW REUNION_R50_NE REUNION_R50_SE REUNION_R50_SW REUNION_R50_NW REUNION_R64_NE REUNION_R64_SE REUNION_R64_SW REUNION_R64_NW BOM_LAT BOM_LON BOM_TYPE BOM_WIND BOM_PRES BOM_TNUM BOM_CI BOM_RMW BOM_R34_NE BOM_R34_SE BOM_R34_SW BOM_R34_NW BOM_R50_NE BOM_R50_SE BOM_R50_SW BOM_R50_NW BOM_R64_NE BOM_R64_SE BOM_R64_SW BOM_R64_NW BOM_ROCI BOM_POCI BOM_EYE BOM_POS_METHOD BOM_PRES_METHOD NADI_LAT NADI_LON NADI_CAT NADI_WIND NADI_PRES WELLINGTON_LAT WELLINGTON_LON WELLINGTON_WIND WELLINGTON_PRES DS824_LAT DS824_LON DS824_STAGE DS824_WIND DS824_PRES TD9636_LAT TD9636_LON TD9636_STAGE TD9636_WIND TD9636_PRES TD9635_LAT TD9635_LON TD9635_WIND TD9635_PRES TD9635_ROCI NEUMANN_LAT NEUMANN_LON NEUMANN_CLASS NEUMANN_WIND NEUMANN_PRES MLC_LAT MLC_LON MLC_CLASS MLC_WIND MLC_PRES USA_GUST BOM_GUST BOM_GUST_PER REUNION_GUST REUNION_GUST_PER USA_SEAHGT USA_SEARAD_NE USA_SEARAD_SE USA_SEARAD_SW USA_SEARAD_NW STORM_SPEED STORM_DIR
2021243N11286 2021 62 NA CS MINDY 2021-08-31 00:00:00 NR 11.2000 -74.3000 PROVISIONAL 10 10 O_____________ nhc_working_bt AL132021 11.2000 -74.3000 DB 15 -3 11 274
2021243N11286 2021 62 NA CS MINDY 2021-08-31 03:00:00 NR 11.2428 -74.8700 PROVISIONAL 22 22 P_____________ AL132021 11.2428 -74.8700 DB 15 -3 11 275
2021243N11286 2021 62 NA CS MINDY 2021-08-31 06:00:00 NR 11.3000 -75.4000 PROVISIONAL 57 57 O_____________ nhc_working_bt AL132021 11.3000 -75.4000 DB 15 -3 10 278
2021243N11286 2021 62 NA CS MINDY 2021-08-31 09:00:00 NR 11.3849 -75.8650 PROVISIONAL 93 93 P_____________ AL132021 11.3849 -75.8650 DB 17 -3 9 283
2021243N11286 2021 62 NA CS MINDY 2021-08-31 12:00:00 NR 11.5000 -76.3000 PROVISIONAL 133 133 O_____________ nhc_working_bt AL132021 11.5000 -76.3000 DB 20 -3 9 286
2021243N11286 2021 62 NA CS MINDY 2021-08-31 15:00:00 NR 11.6425 -76.7575 PROVISIONAL 180 180 P_____________ AL132021 11.6425 -76.7575 DB 20 -3 9 289
2021243N11286 2021 62 NA CS MINDY 2021-08-31 18:00:00 NR 11.8000 -77.2000 PROVISIONAL 229 229 O_____________ nhc_working_bt AL132021 11.8000 -77.2000 DB 20 -3 8 291
2021243N11286 2021 62 NA CS MINDY 2021-08-31 21:00:00 NR 11.9268 -77.5180 PROVISIONAL 262 262 P_____________ AL132021 11.9268 -77.5180 DB 22 -3 8 291
2021243N11286 2021 62 NA CS MINDY 2021-09-01 00:00:00 DS 12.1000 -78.0000 PROVISIONAL 315 309 O_____________ nhc_working_bt AL132021 12.1000 -78.0000 LO 25 1009 -3 1011 150 70 15 288
2021243N11286 2021 62 NA CS MINDY 2021-09-01 03:00:00 DS 12.3786 -78.9771 PROVISIONAL 324 324 P_____________ AL132021 12.3786 -78.9771 LO 27 1008 -3 1011 150 60 20 287
2021243N11286 2021 62 NA CS MINDY 2021-09-01 06:00:00 DS 12.7000 -80.0000 PROVISIONAL 359 314 O_____________ nhc_working_bt AL132021 12.7000 -80.0000 LO 30 1008 -3 1011 150 50 17 292
2021243N11286 2021 62 NA CS MINDY 2021-09-01 09:00:00 DS 13.0368 -80.6176 PROVISIONAL 314 253 P_____________ AL132021 13.0368 -80.6176 LO 30 1008 -3 1011 150 50 12 299
2021243N11286 2021 62 NA CS MINDY 2021-09-01 12:00:00 DS 13.3000 -81.1000 PROVISIONAL 253 200 O_____________ nhc_working_bt AL132021 13.3000 -81.1000 LO 30 1008 -3 1011 150 50 11 289
2021243N11286 2021 62 NA CS MINDY 2021-09-01 15:00:00 DS 13.3874 -81.6578 PROVISIONAL 190 140 P_____________ AL132021 13.3874 -81.6578 LO 30 1008 -3 1011 150 50 11 275
2021243N11286 2021 62 NA CS MINDY 2021-09-01 18:00:00 DS 13.4000 -82.2000 PROVISIONAL 140 86 O_____________ nhc_working_bt AL132021 13.4000 -82.2000 LO 30 1008 -3 1011 150 50 11 273
2021243N11286 2021 62 NA CS MINDY 2021-09-01 21:00:00 DS 13.4501 -82.7600 PROVISIONAL 75 32 P_____________ AL132021 13.4501 -82.7600 LO 30 1008 -3 1011 150 40 10 276
2021243N11286 2021 62 NA CS MINDY 2021-09-02 00:00:00 DS 13.5000 -83.2000 PROVISIONAL 32 10 O_____________ nhc_working_bt AL132021 13.5000 -83.2000 LO 30 1008 -3 1011 150 30 6 279
2021243N11286 2021 62 NA CS MINDY 2021-09-02 03:00:00 DS 13.5498 -83.3950 PROVISIONAL 10 0 P_____________ AL132021 13.5498 -83.3950 LO 30 1008 -3 1011 150 30 3 289
2021243N11286 2021 62 NA CS MINDY 2021-09-02 06:00:00 DS 13.6000 -83.5000 PROVISIONAL 0 0 O_____________ nhc_working_bt AL132021 13.6000 -83.5000 LO 30 1008 -3 1011 150 30 3 285
2021243N11286 2021 62 NA NA MINDY 2021-09-02 09:00:00 DS 13.6275 -83.6851 PROVISIONAL 0 0 P_____________ AL132021 13.6275 -83.6851 LO 30 1008 -3 1011 150 30 4 284
2021243N11286 2021 62 NA NA MINDY 2021-09-02 12:00:00 DS 13.7000 -83.9000 PROVISIONAL 0 0 O_____________ nhc_working_bt AL132021 13.7000 -83.9000 LO 30 1008 -3 1011 150 30 5 298
2021243N11286 2021 62 NA NA MINDY 2021-09-02 15:00:00 DS 13.8549 -84.1276 PROVISIONAL 0 0 P_____________ AL132021 13.8549 -84.1276 LO 27 1009 -3 1011 135 60 6 309
2021243N11286 2021 62 NA NA MINDY 2021-09-02 18:00:00 DS 14.1000 -84.4000 PROVISIONAL 0 0 O_____________ nhc_working_bt AL132021 14.1000 -84.4000 LO 25 1010 -3 1012 120 90 8 316
2021243N11286 2021 62 NA NA MINDY 2021-09-02 21:00:00 DS 14.4499 -84.7199 PROVISIONAL 0 0 P_____________ AL132021 14.4499 -84.7199 LO 22 1010 -3 1012 120 90 10 316
2021243N11286 2021 62 NA NA MINDY 2021-09-03 00:00:00 DS 14.8000 -85.1000 PROVISIONAL 0 0 O_____________ nhc_working_bt AL132021 14.8000 -85.1000 LO 20 1010 -3 1012 120 90 9 306
2021243N11286 2021 62 NA NA MINDY 2021-09-03 03:00:00 DS 14.9692 -85.4462 PROVISIONAL 0 0 P_____________ AL132021 14.9692 -85.4462 LO 20 1010 -3 1012 120 90 10 295
2021243N11286 2021 62 NA NA MINDY 2021-09-03 06:00:00 NR 15.2000 -86.0000 PROVISIONAL 0 0 O_____________ nhc_working_bt AL132021 15.2000 -86.0000 DB 20 1010 -3 1012 120 90 17 296
2021243N11286 2021 62 NA NA MINDY 2021-09-03 09:00:00 NR 15.7215 -87.0335 PROVISIONAL 0 0 P_____________ AL132021 15.7215 -87.0335 DB 20 1010 -3 1012 120 90 23 299
2021243N11286 2021 62 NA CS MINDY 2021-09-03 12:00:00 NR 16.3000 -88.1000 PROVISIONAL 39 0 O_____________ nhc_working_bt AL132021 16.3000 -88.1000 DB 20 1010 -3 1012 120 90 20 301
2021243N11286 2021 62 NA NA MINDY 2021-09-03 15:00:00 NR 16.7368 -88.7631 PROVISIONAL 0 0 P_____________ AL132021 16.7368 -88.7631 DB 20 1010 -3 1012 120 90 13 307
2021243N11286 2021 62 NA NA MINDY 2021-09-03 18:00:00 NR 17.1000 -89.2000 PROVISIONAL 0 0 O_____________ nhc_working_bt AL132021 17.1000 -89.2000 DB 20 1010 -3 1012 120 90 10 312
2021243N11286 2021 62 NA NA MINDY 2021-09-03 21:00:00 NR 17.4223 -89.5528 PROVISIONAL 0 0 P_____________ AL132021 17.4223 -89.5528 DB 20 1010 -3 1012 120 90 8 316
2021243N11286 2021 62 NA NA MINDY 2021-09-04 00:00:00 NR 17.7000 -89.8000 PROVISIONAL 0 0 O_____________ nhc_working_bt AL132021 17.7000 -89.8000 DB 20 1010 -3 1012 120 90 7 320
2021243N11286 2021 62 NA NA MINDY 2021-09-04 03:00:00 NR 17.9649 -90.0226 PROVISIONAL 0 0 P_____________ AL132021 17.9649 -90.0226 DB 20 1010 -3 1012 120 90 6 323
2021243N11286 2021 62 NA NA MINDY 2021-09-04 06:00:00 NR 18.2000 -90.2000 PROVISIONAL 0 0 O_____________ nhc_working_bt AL132021 18.2000 -90.2000 DB 20 1010 -3 1012 120 90 6 324
2021243N11286 2021 62 NA NA MINDY 2021-09-04 09:00:00 NR 18.4075 -90.3651 PROVISIONAL 0 0 P_____________ AL132021 18.4075 -90.3651 DB 20 1010 -3 1012 120 90 5 325
2021243N11286 2021 62 NA NA MINDY 2021-09-04 12:00:00 NR 18.6000 -90.5000 PROVISIONAL 0 0 O_____________ nhc_working_bt AL132021 18.6000 -90.5000 DB 20 1011 -3 1012 120 90 5 329
2021243N11286 2021 62 NA NA MINDY 2021-09-04 15:00:00 NR 18.8075 -90.6150 PROVISIONAL 0 0 P_____________ AL132021 18.8075 -90.6150 DB 20 1011 -3 1012 120 90 4 335
2021243N11286 2021 62 NA NA MINDY 2021-09-04 18:00:00 NR 19.0000 -90.7000 PROVISIONAL 0 0 O_____________ nhc_working_bt AL132021 19.0000 -90.7000 DB 20 1011 -3 1012 120 90 4 339
2021243N11286 2021 62 NA NA MINDY 2021-09-04 21:00:00 NR 19.1650 -90.7575 PROVISIONAL 0 0 P_____________ AL132021 19.1650 -90.7575 DB 20 1011 -3 1012 120 90 3 343
2021243N11286 2021 62 NA GM MINDY 2021-09-05 00:00:00 NR 19.3000 -90.8000 PROVISIONAL 0 0 O_____________ nhc_working_bt AL132021 19.3000 -90.8000 DB 20 1011 -3 1012 120 90 3 339
2021243N11286 2021 62 NA GM MINDY 2021-09-05 03:00:00 NR 19.4075 -90.8500 PROVISIONAL 15 15 P_____________ AL132021 19.4075 -90.8500 DB 20 1011 -3 1012 120 90 2 333
2021243N11286 2021 62 NA GM MINDY 2021-09-05 06:00:00 NR 19.5000 -90.9000 PROVISIONAL 20 20 O_____________ nhc_working_bt AL132021 19.5000 -90.9000 DB 20 1011 -3 1012 120 90 2 335
2021243N11286 2021 62 NA GM MINDY 2021-09-05 09:00:00 NR 19.6000 -90.9425 PROVISIONAL 20 20 P_____________ AL132021 19.6000 -90.9425 DB 20 1011 -3 1012 120 90 2 333
2021243N11286 2021 62 NA GM MINDY 2021-09-05 12:00:00 NR 19.7000 -91.0000 PROVISIONAL 31 31 O_____________ nhc_working_bt AL132021 19.7000 -91.0000 DB 20 1011 -3 1012 120 90 2 324
2021243N11286 2021 62 NA GM MINDY 2021-09-05 15:00:00 NR 19.7925 -91.0850 PROVISIONAL 43 43 P_____________ AL132021 19.7925 -91.0850 DB 20 1011 -3 1012 120 90 3 316
2021243N11286 2021 62 NA GM MINDY 2021-09-05 18:00:00 NR 19.9000 -91.2000 PROVISIONAL 56 56 O_____________ nhc_working_bt AL132021 19.9000 -91.2000 DB 20 1011 -3 1012 120 90 4 315
2021243N11286 2021 62 NA GM MINDY 2021-09-05 21:00:00 NR 20.0425 -91.3500 PROVISIONAL 71 71 P_____________ AL132021 20.0425 -91.3500 DB 20 1010 -3 1012 120 90 4 317
2021243N11286 2021 62 NA GM MINDY 2021-09-06 00:00:00 NR 20.2000 -91.5000 PROVISIONAL 100 100 O_____________ nhc_working_bt AL132021 20.2000 -91.5000 DB 20 1010 -3 1012 120 90 4 321
2021243N11286 2021 62 NA GM MINDY 2021-09-06 03:00:00 NR 20.3350 -91.6001 PROVISIONAL 114 114 P_____________ AL132021 20.3350 -91.6001 DB 20 1010 -3 1012 120 90 4 329
2021243N11286 2021 62 NA GM MINDY 2021-09-06 06:00:00 NR 20.5000 -91.7000 PROVISIONAL 124 124 O_____________ nhc_working_bt AL132021 20.5000 -91.7000 DB 20 1011 -3 1013 120 90 5 330
2021243N11286 2021 62 NA GM MINDY 2021-09-06 09:00:00 NR 20.7350 -91.8499 PROVISIONAL 137 137 P_____________ AL132021 20.7350 -91.8499 DB 20 1011 -3 1013 120 90 6 331
2021243N11286 2021 62 NA GM MINDY 2021-09-06 12:00:00 NR 21.0000 -92.0000 PROVISIONAL 165 165 O_____________ nhc_working_bt AL132021 21.0000 -92.0000 DB 20 1011 -3 1013 120 90 6 334
2021243N11286 2021 62 NA GM MINDY 2021-09-06 15:00:00 NR 21.2350 -92.1076 PROVISIONAL 182 182 P_____________ AL132021 21.2350 -92.1076 DB 20 1011 -3 1013 120 90 5 340
2021243N11286 2021 62 NA GM MINDY 2021-09-06 18:00:00 NR 21.5000 -92.2000 PROVISIONAL 201 201 O_____________ nhc_working_bt AL132021 21.5000 -92.2000 DB 20 1011 -3 1013 120 90 6 342
2021243N11286 2021 62 NA GM MINDY 2021-09-06 21:00:00 NR 21.8275 -92.3149 PROVISIONAL 221 221 P_____________ AL132021 21.8275 -92.3149 DB 20 1011 -3 1013 120 90 7 345
2021243N11286 2021 62 NA GM MINDY 2021-09-07 00:00:00 NR 22.2000 -92.4000 PROVISIONAL 249 249 O_____________ nhc_working_bt AL132021 22.2000 -92.4000 DB 20 1011 -3 1013 120 90 8 352
2021243N11286 2021 62 NA GM MINDY 2021-09-07 03:00:00 NR 22.5925 -92.4374 PROVISIONAL 273 273 P_____________ AL132021 22.5925 -92.4374 DB 20 1011 -3 1013 120 90 8 1
2021243N11286 2021 62 NA GM MINDY 2021-09-07 06:00:00 NR 23.0000 -92.4000 PROVISIONAL 303 303 O_____________ nhc_working_bt AL132021 23.0000 -92.4000 DB 20 1011 -3 1013 120 90 8 10
2021243N11286 2021 62 NA GM MINDY 2021-09-07 09:00:00 NR 23.4150 -92.2727 PROVISIONAL 329 329 P_____________ AL132021 23.4150 -92.2727 DB 22 1010 -3 1013 120 90 9 19
2021243N11286 2021 62 NA GM MINDY 2021-09-07 12:00:00 NR 23.8000 -92.1000 PROVISIONAL 353 353 O_____________ nhc_working_bt AL132021 23.8000 -92.1000 DB 25 1010 -3 1013 120 90 8 22
2021243N11286 2021 62 NA GM MINDY 2021-09-07 15:00:00 NR 24.1225 -91.9574 PROVISIONAL 378 373 P_____________ AL132021 24.1225 -91.9574 DB 22 1010 -3 1013 120 90 7 25
2021243N11286 2021 62 NA GM MINDY 2021-09-07 18:00:00 NR 24.4000 -91.8000 PROVISIONAL 399 399 O_____________ nhc_working_bt AL132021 24.4000 -91.8000 DB 20 1011 -3 1013 120 90 6 27
2021243N11286 2021 62 NA GM MINDY 2021-09-07 21:00:00 NR 24.6119 -91.6814 PROVISIONAL 416 416 P_____________ AL132021 24.6119 -91.6814 DB 20 1010 -3 1013 120 85 6 36
2021243N11286 2021 62 NA GM MINDY 2021-09-08 00:00:00 NR 24.9000 -91.4000 PROVISIONAL 439 413 O_____________ nhc_working_bt AL132021 24.9000 -91.4000 DB 20 1010 -3 1013 120 80 11 46
2021243N11286 2021 62 NA GM MINDY 2021-09-08 03:00:00 NR 25.3978 -90.7903 PROVISIONAL 413 346 P_____________ AL132021 25.3978 -90.7903 DB 20 1010 -3 1012 105 80 17 49
2021243N11286 2021 62 NA GM MINDY 2021-09-08 06:00:00 NR 26.0000 -90.0000 PROVISIONAL 346 268 O_____________ nhc_working_bt AL132021 26.0000 -90.0000 DB 20 1011 -3 1012 90 80 19 50
2021243N11286 2021 62 NA GM MINDY 2021-09-08 09:00:00 NR 26.5923 -89.2145 PROVISIONAL 268 212 P_____________ AL132021 26.5923 -89.2145 DB 20 1011 -3 1012 90 80 19 50
2021243N11286 2021 62 NA GM MINDY 2021-09-08 12:00:00 NR 27.2000 -88.4000 PROVISIONAL 212 192 O_____________ nhc_working_bt AL132021 27.2000 -88.4000 DB 20 1011 -3 1012 90 80 19 50
2021243N11286 2021 62 NA GM MINDY 2021-09-08 15:00:00 NR 27.8073 -87.5845 PROVISIONAL 198 198 P_____________ AL132021 27.8073 -87.5845 DB 27 1009 -3 1012 90 55 19 50
2021243N11286 2021 62 NA GM MINDY 2021-09-08 18:00:00 TS 28.4000 -86.8000 PROVISIONAL 198 112 O_____________ nhc_working_bt AL132021 28.4000 -86.8000 TS 35 1008 0 30 1012 90 30 18 49
2021243N11286 2021 62 NA GM MINDY 2021-09-08 21:00:00 TS 28.9607 -86.0931 PROVISIONAL 103 22 P_____________ AL132021 28.9643 -86.0914 TS 37 1006 0 35 1011 90 30 16 48
2021243N11286 2021 62 NA GM MINDY 2021-09-09 00:00:00 TS 29.5000 -85.4000 PROVISIONAL 22 0 O_____________ nhc_working_bt AL132021 29.5000 -85.4000 TS 40 1004 0 40 1011 90 30 50 17 51
2021243N11286 2021 62 NA NA MINDY 2021-09-09 03:00:00 TS 29.9976 -84.6149 PROVISIONAL 0 0 P_____________ AL132021 30.0288 -84.7016 TS 37 1004 0 40 1010 90 30 17 55
2021243N11286 2021 62 NA NA MINDY 2021-09-09 06:00:00 TS 30.4706 -83.8142 PROVISIONAL 0 0 O_____________ nhc_working_bt AL132021 30.5000 -83.9000 TS 35 1004 0 40 1010 90 30 45 12 40 17 59
2021243N11286 2021 62 NA NA MINDY 2021-09-09 09:00:00 TS 30.8870 -82.9169 PROVISIONAL 0 0 P_____________ AL132021 30.8870 -82.9169 TS 32 1004 -1 1010 85 35 19 67
2021243N11286 2021 62 NA NA MINDY 2021-09-09 12:00:00 TS 31.2000 -81.8000 PROVISIONAL 0 0 O_____________ nhc_working_bt AL132021 31.2000 -81.8000 TD 30 1005 -1 1010 80 40 40 20 73
2021243N11286 2021 62 NA NA MINDY 2021-09-09 15:00:00 TS 31.4623 -80.6883 PROVISIONAL 48 48 P_____________ AL132021 31.4623 -80.6883 TD 30 1005 -1 1009 80 40 21 76
2021243N11286 2021 62 NA NA MINDY 2021-09-09 18:00:00 TS 31.7000 -79.4000 PROVISIONAL 115 115 O_____________ nhc_working_bt AL132021 31.7000 -79.4000 TD 30 1005 -1 1009 80 40 40 25 79
2021243N11286 2021 62 NA NA MINDY 2021-09-09 21:00:00 TS 31.9510 -77.8352 PROVISIONAL 186 186 P_____________ AL132021 31.9510 -77.8352 TD 30 1005 -1 1009 80 40 28 80
2021243N11286 2021 62 NA NA MINDY 2021-09-10 00:00:00 NR 32.2000 -76.1000 PROVISIONAL 259 O_____________ nhc_working_bt AL132021 32.2000 -76.1000 DB 30 1005 -3 1009 80 40 40 30 80

About IBTrACS Database

This database is a web-friendly format of International Best Track Archive for Climate Stewardship (IBTrACS), a global best track data archive curated by NOAA dating back to 1842.

Updated: 2021-12-03